Time;durP1;ratioP1;P1;durP2;ratioP2;P2;SDS_P1;SDS_P2;PMS_P1;PMS_P2;Temp;Humidity;BMP_temperature;BMP_pressure;BME280_temperature;BME280_humidity;BME280_pressure;Samples;Min_cycle;Max_cycle;Signal;HPM_P1;HPM_P2
2024/01/18 00:02:11;;;;;;;9.73;8.23;;;;;;;;;;5018035;28;20452;-54
2024/01/18 00:04:37;;;;;;;10.83;9.30;;;;;;;;;;5014646;28;20417;-54
2024/01/18 00:07:03;;;;;;;10.57;7.60;;;;;;;;;;5020354;28;20410;-53
2024/01/18 00:09:29;;;;;;;11.33;8.80;;;;;;;;;;5024751;28;20478;-51
2024/01/18 00:11:55;;;;;;;9.30;7.97;;;;;;;;;;5019229;28;20894;-49
2024/01/18 00:14:21;;;;;;;22.43;9.37;;;;;;;;;;5023979;28;20520;-49
2024/01/18 00:16:47;;;;;;;11.43;9.60;;;;;;;;;;5019391;28;21040;-49
2024/01/18 00:19:13;;;;;;;9.87;8.47;;;;;;;;;;5021103;28;20422;-49
2024/01/18 00:21:39;;;;;;;11.07;8.50;;;;;;;;;;5018139;28;20205;-49
2024/01/18 00:24:06;;;;;;;14.13;9.60;;;;;;;;;;5021958;28;20170;-50
2024/01/18 00:26:32;;;;;;;10.27;8.83;;;;;;;;;;5017977;28;20468;-50
2024/01/18 00:29:01;;;;;;;11.60;8.83;;;;;;;;;;5024126;28;20482;-49
2024/01/18 00:31:27;;;;;;;11.07;8.47;;;;;;;;;;5019658;28;21100;-49
2024/01/18 00:33:57;;;;;;;10.23;8.47;;;;;;;;;;5018572;28;20471;-50
2024/01/18 00:36:23;;;;;;;13.37;9.33;;;;;;;;;;5019335;28;20257;-49
2024/01/18 00:38:49;;;;;;;14.37;10.00;;;;;;;;;;5020172;28;20958;-50
2024/01/18 00:41:15;;;;;;;10.63;9.53;;;;;;;;;;5014763;28;20521;-52
2024/01/18 00:43:42;;;;;;;13.50;9.50;;;;;;;;;;5013410;28;20198;-51
2024/01/18 00:46:08;;;;;;;9.93;8.87;;;;;;;;;;5015757;28;21143;-50
2024/01/18 00:48:34;;;;;;;10.67;8.90;;;;;;;;;;5014885;28;20516;-50
2024/01/18 00:51:00;;;;;;;11.43;10.00;;;;;;;;;;5018843;28;21033;-49
2024/01/18 00:53:26;;;;;;;12.07;8.83;;;;;;;;;;5028476;28;20178;-52
2024/01/18 00:55:52;;;;;;;11.43;9.13;;;;;;;;;;5024740;28;20401;-51
2024/01/18 00:58:18;;;;;;;12.83;9.90;;;;;;;;;;5014056;28;20424;-51
2024/01/18 01:00:44;;;;;;;11.57;9.37;;;;;;;;;;5015820;28;20436;-51
2024/01/18 01:03:10;;;;;;;12.37;9.40;;;;;;;;;;5020513;28;20460;-49
2024/01/18 01:05:36;;;;;;;13.00;10.27;;;;;;;;;;5020087;28;20428;-50
2024/01/18 01:08:02;;;;;;;13.37;10.20;;;;;;;;;;5026739;28;20166;-49
2024/01/18 01:10:28;;;;;;;10.20;9.17;;;;;;;;;;5023354;28;20417;-50
2024/01/18 01:12:54;;;;;;;11.33;9.23;;;;;;;;;;5020273;28;20248;-49
2024/01/18 01:15:20;;;;;;;11.87;9.90;;;;;;;;;;5027540;28;20217;-50
2024/01/18 01:17:46;;;;;;;11.47;8.63;;;;;;;;;;5028887;28;20234;-50
2024/01/18 01:20:12;;;;;;;11.87;10.37;;;;;;;;;;5017375;28;20898;-57
2024/01/18 01:22:39;;;;;;;10.83;9.40;;;;;;;;;;5017582;28;20946;-58
2024/01/18 01:25:05;;;;;;;12.40;9.67;;;;;;;;;;5024336;28;20488;-57
2024/01/18 01:27:31;;;;;;;13.03;9.10;;;;;;;;;;5020757;28;20417;-58
2024/01/18 01:29:57;;;;;;;11.63;9.63;;;;;;;;;;5016857;28;20418;-57
2024/01/18 01:32:23;;;;;;;12.10;9.70;;;;;;;;;;5019660;28;20248;-57
2024/01/18 01:34:49;;;;;;;11.23;9.30;;;;;;;;;;5014884;28;20886;-57
2024/01/18 01:37:16;;;;;;;11.23;9.00;;;;;;;;;;5023760;28;20448;-57
2024/01/18 01:39:42;;;;;;;11.50;9.30;;;;;;;;;;5018484;28;20421;-54
2024/01/18 01:42:09;;;;;;;12.17;9.67;;;;;;;;;;5018595;28;20491;-56
2024/01/18 01:44:35;;;;;;;11.17;9.30;;;;;;;;;;5017950;28;20465;-53
2024/01/18 01:47:01;;;;;;;12.37;9.57;;;;;;;;;;5025882;28;20482;-57
2024/01/18 01:49:27;;;;;;;9.83;8.63;;;;;;;;;;5028593;28;20550;-56
2024/01/18 01:51:53;;;;;;;14.07;9.17;;;;;;;;;;5016291;28;20193;-57
2024/01/18 01:54:20;;;;;;;12.67;9.63;;;;;;;;;;5019206;28;20408;-58
2024/01/18 01:56:48;;;;;;;11.63;9.40;;;;;;;;;;5021660;28;20410;-58
2024/01/18 01:59:15;;;;;;;12.50;10.13;;;;;;;;;;5017901;28;20733;-58
2024/01/18 02:01:42;;;;;;;13.13;9.77;;;;;;;;;;5014472;28;20461;-56
2024/01/18 02:04:09;;;;;;;10.53;9.20;;;;;;;;;;5028247;28;20417;-53
2024/01/18 02:06:36;;;;;;;13.47;10.23;;;;;;;;;;5024011;28;20419;-56
2024/01/18 02:09:03;;;;;;;12.00;9.40;;;;;;;;;;5023796;28;20467;-56
2024/01/18 02:11:29;;;;;;;11.97;9.43;;;;;;;;;;5019227;28;20440;-55
2024/01/18 02:13:55;;;;;;;10.90;8.87;;;;;;;;;;5020952;28;20446;-56
2024/01/18 02:16:21;;;;;;;13.00;10.40;;;;;;;;;;5023917;28;20516;-58
2024/01/18 02:18:47;;;;;;;11.27;9.60;;;;;;;;;;5022955;28;20424;-56
2024/01/18 02:21:14;;;;;;;10.20;9.03;;;;;;;;;;5016215;28;20488;-57
2024/01/18 02:23:41;;;;;;;11.03;9.73;;;;;;;;;;5018282;28;20456;-57
2024/01/18 02:26:07;;;;;;;12.47;9.53;;;;;;;;;;5020859;28;20401;-57
2024/01/18 02:28:33;;;;;;;12.83;10.30;;;;;;;;;;5018444;28;20413;-57
2024/01/18 02:30:59;;;;;;;12.83;10.17;;;;;;;;;;5016481;28;20413;-50
2024/01/18 02:33:26;;;;;;;13.73;10.20;;;;;;;;;;5025509;28;20417;-50
2024/01/18 02:35:52;;;;;;;14.50;10.47;;;;;;;;;;5021769;28;20439;-53
2024/01/18 02:38:18;;;;;;;11.03;9.57;;;;;;;;;;5025611;28;20443;-48
2024/01/18 02:40:44;;;;;;;12.23;10.50;;;;;;;;;;5026197;28;20472;-50
2024/01/18 02:43:10;;;;;;;14.13;10.50;;;;;;;;;;5024021;28;20464;-49
2024/01/18 02:45:37;;;;;;;11.17;9.77;;;;;;;;;;5013716;28;22140;-51
2024/01/18 02:48:03;;;;;;;12.63;10.30;;;;;;;;;;5018665;28;20932;-51
2024/01/18 02:50:29;;;;;;;11.67;9.80;;;;;;;;;;5020974;28;20417;-51
2024/01/18 02:52:55;;;;;;;13.07;9.80;;;;;;;;;;5020843;28;20404;-49
2024/01/18 02:55:21;;;;;;;14.33;10.20;;;;;;;;;;5014717;28;20402;-50
2024/01/18 02:57:47;;;;;;;13.47;10.57;;;;;;;;;;5012561;28;20608;-49
2024/01/18 03:00:14;;;;;;;11.17;9.33;;;;;;;;;;5014335;28;20436;-49
2024/01/18 03:02:40;;;;;;;13.37;10.60;;;;;;;;;;5019886;28;20483;-51
2024/01/18 03:05:06;;;;;;;11.43;10.10;;;;;;;;;;5021553;28;20412;-50
2024/01/18 03:07:33;;;;;;;11.53;9.87;;;;;;;;;;5019966;28;20536;-52
2024/01/18 03:09:59;;;;;;;11.33;10.10;;;;;;;;;;5022703;28;20405;-52
2024/01/18 03:12:25;;;;;;;12.37;10.37;;;;;;;;;;5022782;28;20459;-50
2024/01/18 03:14:51;;;;;;;12.83;10.77;;;;;;;;;;5021138;28;20432;-50
2024/01/18 03:17:18;;;;;;;12.93;11.13;;;;;;;;;;5024096;28;20435;-51
2024/01/18 03:19:44;;;;;;;12.87;10.37;;;;;;;;;;5020944;28;20390;-53
2024/01/18 03:22:10;;;;;;;11.83;10.63;;;;;;;;;;5026109;28;20555;-51
2024/01/18 03:24:36;;;;;;;11.93;10.63;;;;;;;;;;5025616;28;20447;-50
2024/01/18 03:27:02;;;;;;;12.30;9.97;;;;;;;;;;5027932;28;20432;-49
2024/01/18 03:29:28;;;;;;;14.20;11.07;;;;;;;;;;5022682;28;20174;-52
2024/01/18 03:31:54;;;;;;;11.03;9.97;;;;;;;;;;5017294;28;20726;-51
2024/01/18 03:34:20;;;;;;;11.07;9.47;;;;;;;;;;5025135;28;20197;-49
2024/01/18 03:36:46;;;;;;;13.07;10.60;;;;;;;;;;5017148;28;20502;-50
2024/01/18 03:39:12;;;;;;;11.83;9.90;;;;;;;;;;5026721;28;20463;-50
2024/01/18 03:41:38;;;;;;;11.60;9.47;;;;;;;;;;5024804;28;20456;-50
2024/01/18 03:44:04;;;;;;;10.73;9.57;;;;;;;;;;5026090;28;20432;-50
2024/01/18 03:46:30;;;;;;;12.07;10.27;;;;;;;;;;5023851;28;20990;-51
2024/01/18 03:48:56;;;;;;;11.73;10.40;;;;;;;;;;5014168;28;20428;-50
2024/01/18 03:51:22;;;;;;;11.57;10.37;;;;;;;;;;5015202;28;20178;-50
2024/01/18 03:53:48;;;;;;;12.53;10.30;;;;;;;;;;5015699;28;20433;-50
2024/01/18 03:56:14;;;;;;;11.83;9.90;;;;;;;;;;5022791;28;20479;-49
2024/01/18 03:58:42;;;;;;;11.57;10.37;;;;;;;;;;5018083;28;20571;-50
2024/01/18 04:01:08;;;;;;;14.00;10.50;;;;;;;;;;5017308;28;20496;-50
2024/01/18 04:03:34;;;;;;;12.60;9.73;;;;;;;;;;5019097;28;20445;-49
2024/01/18 04:06:00;;;;;;;14.47;10.67;;;;;;;;;;5020057;28;20416;-49
2024/01/18 04:08:26;;;;;;;13.00;10.33;;;;;;;;;;5017688;28;20858;-50
2024/01/18 04:10:52;;;;;;;12.60;10.27;;;;;;;;;;5017588;28;20435;-50
2024/01/18 04:13:18;;;;;;;12.37;10.00;;;;;;;;;;5023091;28;20432;-51
2024/01/18 04:15:44;;;;;;;11.97;10.37;;;;;;;;;;5022927;28;20178;-49
2024/01/18 04:18:10;;;;;;;15.07;11.20;;;;;;;;;;5010235;28;20918;-50
2024/01/18 04:20:36;;;;;;;14.33;11.17;;;;;;;;;;5013714;28;20435;-52
2024/01/18 04:23:02;;;;;;;13.23;11.83;;;;;;;;;;5015129;28;21761;-50
2024/01/18 04:25:28;;;;;;;12.13;10.40;;;;;;;;;;5021886;28;20523;-50
2024/01/18 04:27:54;;;;;;;13.07;11.00;;;;;;;;;;5022258;28;20301;-49
2024/01/18 04:30:20;;;;;;;13.17;10.97;;;;;;;;;;5016987;28;20582;-50
2024/01/18 04:32:46;;;;;;;11.97;10.77;;;;;;;;;;5021971;28;20181;-49
2024/01/18 04:35:12;;;;;;;13.90;10.93;;;;;;;;;;5015543;28;21151;-49
2024/01/18 04:37:38;;;;;;;13.53;9.80;;;;;;;;;;5016351;28;20441;-49
2024/01/18 04:40:05;;;;;;;12.10;10.73;;;;;;;;;;5017669;28;20417;-50
2024/01/18 04:42:31;;;;;;;12.03;10.13;;;;;;;;;;5020874;28;20267;-51
2024/01/18 04:44:58;;;;;;;11.13;9.37;;;;;;;;;;5021903;28;21364;-50
2024/01/18 04:47:24;;;;;;;13.80;10.33;;;;;;;;;;5020967;28;20173;-49
2024/01/18 04:49:50;;;;;;;17.00;10.67;;;;;;;;;;5018112;28;20437;-52
2024/01/18 04:52:17;;;;;;;11.60;10.07;;;;;;;;;;5011323;28;20527;-49
2024/01/18 04:54:43;;;;;;;12.17;10.43;;;;;;;;;;5017673;28;20547;-51
2024/01/18 04:57:09;;;;;;;12.73;10.53;;;;;;;;;;5017894;28;20444;-51
2024/01/18 04:59:35;;;;;;;11.30;10.10;;;;;;;;;;5014590;28;20647;-50
2024/01/18 05:02:01;;;;;;;13.03;10.37;;;;;;;;;;5021772;28;20911;-49
2024/01/18 05:04:27;;;;;;;14.13;11.57;;;;;;;;;;5022859;28;20432;-50
2024/01/18 05:06:53;;;;;;;14.40;11.07;;;;;;;;;;5016562;28;20426;-52
2024/01/18 05:09:19;;;;;;;11.87;10.63;;;;;;;;;;5022230;28;20475;-51
2024/01/18 05:11:46;;;;;;;12.13;10.50;;;;;;;;;;5024424;28;20428;-50
2024/01/18 05:14:12;;;;;;;13.50;9.83;;;;;;;;;;5021717;28;20919;-50
2024/01/18 05:16:40;;;;;;;12.30;10.37;;;;;;;;;;5016014;28;20931;-49
2024/01/18 05:19:08;;;;;;;12.83;10.67;;;;;;;;;;5019289;28;20416;-51
2024/01/18 05:21:34;;;;;;;14.23;11.73;;;;;;;;;;5014829;28;20604;-49
2024/01/18 05:24:00;;;;;;;13.13;11.03;;;;;;;;;;5018789;28;20432;-50
2024/01/18 05:26:26;;;;;;;12.97;10.17;;;;;;;;;;5017042;28;20433;-49
2024/01/18 05:28:52;;;;;;;12.93;10.23;;;;;;;;;;5015295;28;20420;-51
2024/01/18 05:31:18;;;;;;;12.23;10.33;;;;;;;;;;5011753;28;21862;-51
2024/01/18 05:33:44;;;;;;;11.17;9.97;;;;;;;;;;5019729;28;20628;-49
2024/01/18 05:36:10;;;;;;;11.10;9.90;;;;;;;;;;5020282;28;20898;-52
2024/01/18 05:38:36;;;;;;;12.87;10.33;;;;;;;;;;5024963;28;20532;-48
2024/01/18 05:41:02;;;;;;;11.63;10.37;;;;;;;;;;5027651;28;21186;-51
2024/01/18 05:43:28;;;;;;;12.80;10.03;;;;;;;;;;5020619;28;20475;-50
2024/01/18 05:45:55;;;;;;;13.17;10.93;;;;;;;;;;5021133;28;20487;-50
2024/01/18 05:48:21;;;;;;;12.37;10.53;;;;;;;;;;5017020;28;20828;-49
2024/01/18 05:50:47;;;;;;;12.10;10.80;;;;;;;;;;5017613;28;20988;-50
2024/01/18 05:53:13;;;;;;;11.53;10.30;;;;;;;;;;5020414;28;20783;-50
2024/01/18 05:55:39;;;;;;;12.57;10.00;;;;;;;;;;5018995;28;20540;-51
2024/01/18 05:58:05;;;;;;;14.83;10.80;;;;;;;;;;5018461;28;20646;-49
2024/01/18 06:00:31;;;;;;;12.27;10.33;;;;;;;;;;5017482;28;20498;-54
2024/01/18 06:02:58;;;;;;;12.47;10.43;;;;;;;;;;5020987;28;20296;-57
2024/01/18 06:05:25;;;;;;;13.60;10.90;;;;;;;;;;5020669;28;20433;-57
2024/01/18 06:07:51;;;;;;;12.70;10.80;;;;;;;;;;5024754;28;20471;-58
2024/01/18 06:10:17;;;;;;;12.53;10.87;;;;;;;;;;5015648;28;21144;-56
2024/01/18 06:12:43;;;;;;;12.13;10.73;;;;;;;;;;5020894;28;20472;-57
2024/01/18 06:15:10;;;;;;;14.00;10.83;;;;;;;;;;5026762;28;20889;-57
2024/01/18 06:17:36;;;;;;;11.67;9.63;;;;;;;;;;5019027;28;20216;-58
2024/01/18 06:20:03;;;;;;;13.63;11.40;;;;;;;;;;5017005;28;21011;-56
2024/01/18 06:22:29;;;;;;;13.23;11.27;;;;;;;;;;5021408;28;20470;-56
2024/01/18 06:24:55;;;;;;;13.97;11.43;;;;;;;;;;5015503;28;20445;-57
2024/01/18 06:27:22;;;;;;;15.20;11.63;;;;;;;;;;5020918;28;20440;-57
2024/01/18 06:29:48;;;;;;;13.60;11.60;;;;;;;;;;5018291;28;20778;-57
2024/01/18 06:32:14;;;;;;;13.23;11.10;;;;;;;;;;5019209;28;20440;-54
2024/01/18 06:34:40;;;;;;;15.67;11.63;;;;;;;;;;5015374;28;20190;-56
2024/01/18 06:37:06;;;;;;;15.83;12.73;;;;;;;;;;5015934;28;20420;-56
2024/01/18 06:39:32;;;;;;;17.00;11.87;;;;;;;;;;5010571;28;20409;-58
2024/01/18 06:41:58;;;;;;;14.73;12.00;;;;;;;;;;5017510;28;20484;-57
2024/01/18 06:44:24;;;;;;;17.13;12.73;;;;;;;;;;5026228;28;20870;-57
2024/01/18 06:46:50;;;;;;;14.27;11.13;;;;;;;;;;5019978;28;20393;-58
2024/01/18 06:49:17;;;;;;;15.27;11.80;;;;;;;;;;5019313;28;20414;-58
2024/01/18 06:51:43;;;;;;;14.53;11.87;;;;;;;;;;5018095;28;20425;-57
2024/01/18 06:54:09;;;;;;;16.60;12.67;;;;;;;;;;5010144;28;20394;-57
2024/01/18 06:56:35;;;;;;;15.17;12.80;;;;;;;;;;5015534;28;20420;-58
2024/01/18 06:59:02;;;;;;;16.80;12.17;;;;;;;;;;5028873;28;20998;-58
2024/01/18 07:01:28;;;;;;;14.40;12.83;;;;;;;;;;5020025;28;20915;-58
2024/01/18 07:03:54;;;;;;;13.60;11.40;;;;;;;;;;5020696;28;20995;-58
2024/01/18 07:06:20;;;;;;;14.73;12.50;;;;;;;;;;5018280;28;20418;-56
2024/01/18 07:08:46;;;;;;;15.10;12.53;;;;;;;;;;5021753;28;20421;-56
2024/01/18 07:11:12;;;;;;;14.83;11.90;;;;;;;;;;5017044;28;20817;-51
2024/01/18 07:13:38;;;;;;;13.80;11.83;;;;;;;;;;5025736;28;20419;-49
2024/01/18 07:16:04;;;;;;;14.63;12.50;;;;;;;;;;5016366;28;20845;-49
2024/01/18 07:18:30;;;;;;;16.77;12.47;;;;;;;;;;5013210;28;21039;-52
2024/01/18 07:20:57;;;;;;;17.80;12.80;;;;;;;;;;5011994;28;20459;-49
2024/01/18 07:23:23;;;;;;;14.50;12.00;;;;;;;;;;5022314;28;20683;-50
2024/01/18 07:25:49;;;;;;;14.77;12.00;;;;;;;;;;5015648;28;20484;-54
2024/01/18 07:28:15;;;;;;;16.10;12.30;;;;;;;;;;5021154;28;20421;-51
2024/01/18 07:30:41;;;;;;;15.30;12.53;;;;;;;;;;5015291;28;20488;-49
2024/01/18 07:33:07;;;;;;;13.80;11.40;;;;;;;;;;5023848;28;20768;-50
2024/01/18 07:38:37;;;;;;;18.20;13.07;;;;;;;;;;5019965;28;20402;-51
2024/01/18 07:41:03;;;;;;;17.57;12.90;;;;;;;;;;5026712;28;20551;-53
2024/01/18 07:43:29;;;;;;;15.70;12.20;;;;;;;;;;5028744;28;21018;-52
2024/01/18 07:45:55;;;;;;;15.40;11.87;;;;;;;;;;5016195;28;20528;-52
2024/01/18 07:48:21;;;;;;;15.10;11.90;;;;;;;;;;5023416;28;20636;-51
2024/01/18 07:50:47;;;;;;;15.80;12.90;;;;;;;;;;5014763;28;20170;-51
2024/01/18 07:53:13;;;;;;;13.67;11.60;;;;;;;;;;5008417;28;20182;-50
2024/01/18 07:55:39;;;;;;;14.13;12.47;;;;;;;;;;5011148;28;20421;-51
2024/01/18 07:58:06;;;;;;;18.10;11.83;;;;;;;;;;5027983;28;20197;-51
2024/01/18 08:00:32;;;;;;;13.17;11.70;;;;;;;;;;5026704;28;20645;-54
2024/01/18 08:02:58;;;;;;;16.30;12.20;;;;;;;;;;5021146;28;20469;-49
2024/01/18 08:05:24;;;;;;;16.40;12.43;;;;;;;;;;5021496;28;20178;-49
2024/01/18 08:07:50;;;;;;;14.63;13.10;;;;;;;;;;5027139;28;20614;-51
2024/01/18 08:10:16;;;;;;;15.03;12.57;;;;;;;;;;5027962;28;20166;-51
2024/01/18 08:12:45;;;;;;;17.63;12.27;;;;;;;;;;5016848;28;20180;-50
2024/01/18 08:15:12;;;;;;;16.87;12.90;;;;;;;;;;5019868;28;20520;-55
2024/01/18 08:17:38;;;;;;;16.33;12.70;;;;;;;;;;5007601;28;20418;-52
2024/01/18 08:20:10;;;;;;;12.43;11.10;;;;;;;;;;5026531;28;20412;-49
2024/01/18 08:22:37;;;;;;;18.67;12.80;;;;;;;;;;5027419;28;20547;-50
2024/01/18 08:25:03;;;;;;;16.80;12.97;;;;;;;;;;5028800;28;20805;-49
2024/01/18 08:27:29;;;;;;;13.13;11.53;;;;;;;;;;5019316;28;20323;-49
2024/01/18 08:29:55;;;;;;;16.13;13.30;;;;;;;;;;5014764;28;20420;-50
2024/01/18 08:32:21;;;;;;;14.43;11.70;;;;;;;;;;5026828;28;20512;-51
2024/01/18 08:34:47;;;;;;;16.57;13.57;;;;;;;;;;5028079;28;20544;-50
2024/01/18 08:37:13;;;;;;;16.60;12.27;;;;;;;;;;5027216;28;20162;-49
2024/01/18 08:39:39;;;;;;;16.23;12.60;;;;;;;;;;5029040;28;20692;-50
2024/01/18 08:42:05;;;;;;;16.47;12.93;;;;;;;;;;5022968;28;20574;-50
2024/01/18 08:44:31;;;;;;;16.83;12.50;;;;;;;;;;5026056;28;20966;-50
2024/01/18 08:46:57;;;;;;;14.07;12.43;;;;;;;;;;5024183;28;20884;-50
2024/01/18 08:49:26;;;;;;;15.87;13.47;;;;;;;;;;5012860;28;20428;-51
2024/01/18 08:51:52;;;;;;;16.30;12.67;;;;;;;;;;5020073;28;20432;-52
2024/01/18 08:54:20;;;;;;;15.23;12.43;;;;;;;;;;5010982;28;20432;-50
2024/01/18 08:56:47;;;;;;;13.60;12.07;;;;;;;;;;5006064;28;20468;-50
2024/01/18 08:59:13;;;;;;;16.60;11.70;;;;;;;;;;5009632;28;20843;-50
2024/01/18 09:01:39;;;;;;;14.37;12.70;;;;;;;;;;5010339;28;20941;-51
2024/01/18 09:04:05;;;;;;;14.97;12.10;;;;;;;;;;5007899;28;20405;-50
2024/01/18 09:06:31;;;;;;;15.43;13.17;;;;;;;;;;5021867;28;20181;-50
2024/01/18 09:08:57;;;;;;;15.13;12.20;;;;;;;;;;5021405;28;20191;-50
2024/01/18 09:11:23;;;;;;;14.50;12.00;;;;;;;;;;5015836;28;20239;-49
2024/01/18 09:13:50;;;;;;;15.27;12.37;;;;;;;;;;5027039;28;20198;-52
2024/01/18 09:16:16;;;;;;;16.47;12.43;;;;;;;;;;5031585;28;20396;-51
2024/01/18 09:18:43;;;;;;;16.37;12.60;;;;;;;;;;5030720;28;20821;-50
2024/01/18 09:21:09;;;;;;;15.00;12.57;;;;;;;;;;5012751;28;20181;-52
2024/01/18 09:23:35;;;;;;;16.10;13.20;;;;;;;;;;5030825;28;20455;-49
2024/01/18 09:26:01;;;;;;;16.73;13.33;;;;;;;;;;5014863;28;20218;-51
2024/01/18 09:28:27;;;;;;;17.80;12.87;;;;;;;;;;5014736;28;20451;-51
2024/01/18 09:30:53;;;;;;;16.67;13.47;;;;;;;;;;5025939;28;20579;-49
2024/01/18 09:33:19;;;;;;;16.50;13.17;;;;;;;;;;5018770;28;20253;-49
2024/01/18 09:35:46;;;;;;;15.53;12.77;;;;;;;;;;5013107;28;20517;-49
2024/01/18 09:38:12;;;;;;;14.47;12.03;;;;;;;;;;5025756;28;20179;-51
2024/01/18 09:40:39;;;;;;;17.03;13.50;;;;;;;;;;5021835;28;20401;-50
2024/01/18 09:43:07;;;;;;;14.23;11.97;;;;;;;;;;5025050;28;20846;-55
2024/01/18 09:45:38;;;;;;;16.93;13.07;;;;;;;;;;5027254;28;20463;-55
2024/01/18 09:48:07;;;;;;;14.40;12.17;;;;;;;;;;5018261;28;20453;-55
2024/01/18 09:50:33;;;;;;;17.40;13.13;;;;;;;;;;5026558;28;20426;-55
2024/01/18 09:52:59;;;;;;;15.73;12.77;;;;;;;;;;5027614;28;20838;-54
2024/01/18 09:55:25;;;;;;;17.03;12.90;;;;;;;;;;5020973;28;20470;-54
2024/01/18 09:57:56;;;;;;;15.33;12.57;;;;;;;;;;5021376;28;20250;-54
2024/01/18 10:00:26;;;;;;;14.50;12.33;;;;;;;;;;5022232;28;20803;-54
2024/01/18 10:02:55;;;;;;;16.77;12.00;;;;;;;;;;5022414;28;20460;-54
2024/01/18 10:05:21;;;;;;;14.80;11.53;;;;;;;;;;5030732;28;20393;-54
2024/01/18 10:07:47;;;;;;;16.63;13.97;;;;;;;;;;5029834;28;20915;-54
2024/01/18 10:10:15;;;;;;;15.73;12.83;;;;;;;;;;5029779;28;20429;-54
2024/01/18 10:12:44;;;;;;;15.33;12.03;;;;;;;;;;5015740;28;20243;-54
2024/01/18 10:15:10;;;;;;;17.67;12.20;;;;;;;;;;5027072;28;20439;-54
2024/01/18 10:17:38;;;;;;;13.17;11.70;;;;;;;;;;5029854;28;20728;-53
2024/01/18 10:20:13;;;;;;;13.20;11.47;;;;;;;;;;5023940;28;20937;-54
2024/01/18 10:22:39;;;;;;;13.87;11.57;;;;;;;;;;5028522;28;20939;-54
2024/01/18 10:25:10;;;;;;;13.90;11.33;;;;;;;;;;5026929;28;20413;-54
2024/01/18 10:27:41;;;;;;;14.60;10.97;;;;;;;;;;5029925;28;20408;-54
2024/01/18 10:30:08;;;;;;;11.73;10.53;;;;;;;;;;5028301;28;20506;-54
2024/01/18 10:32:34;;;;;;;10.93;9.57;;;;;;;;;;5009908;28;20409;-54
2024/01/18 10:35:00;;;;;;;13.97;9.90;;;;;;;;;;5018674;28;20479;-54
2024/01/18 10:37:26;;;;;;;11.53;9.90;;;;;;;;;;5009218;28;20445;-54
2024/01/18 10:39:52;;;;;;;12.77;10.67;;;;;;;;;;5029232;28;20422;-53
2024/01/18 10:42:19;;;;;;;14.10;10.17;;;;;;;;;;5011094;28;20473;-54
2024/01/18 10:44:45;;;;;;;12.33;9.23;;;;;;;;;;5010375;28;20690;-54
2024/01/18 10:47:12;;;;;;;11.80;9.77;;;;;;;;;;5019089;28;20445;-53
2024/01/18 10:49:40;;;;;;;11.10;8.70;;;;;;;;;;5029759;28;20409;-54
2024/01/18 10:52:07;;;;;;;11.10;8.50;;;;;;;;;;5029441;28;20714;-54
2024/01/18 10:54:34;;;;;;;12.67;8.60;;;;;;;;;;5027347;28;20439;-54
2024/01/18 10:57:00;;;;;;;10.20;8.73;;;;;;;;;;5028882;28;20453;-56
2024/01/18 10:59:29;;;;;;;10.17;8.30;;;;;;;;;;5022067;28;20436;-54
2024/01/18 11:01:57;;;;;;;11.57;8.87;;;;;;;;;;5009942;28;20499;-56
2024/01/18 11:04:23;;;;;;;9.60;8.00;;;;;;;;;;5019367;28;20492;-54
2024/01/18 11:06:50;;;;;;;11.67;7.97;;;;;;;;;;5009005;28;20849;-56
2024/01/18 11:09:17;;;;;;;10.67;8.00;;;;;;;;;;5009929;28;20208;-56
2024/01/18 11:11:43;;;;;;;9.60;7.57;;;;;;;;;;5009974;28;20412;-56
2024/01/18 11:14:09;;;;;;;9.30;7.40;;;;;;;;;;5019305;28;20917;-55
2024/01/18 11:16:38;;;;;;;8.07;7.17;;;;;;;;;;5009079;28;20506;-56
2024/01/18 11:19:04;;;;;;;9.47;7.17;;;;;;;;;;5009087;28;20174;-55
2024/01/18 11:21:41;;;;;;;8.97;6.67;;;;;;;;;;5019900;28;20563;-57
2024/01/18 11:24:10;;;;;;;8.07;6.10;;;;;;;;;;5026755;28;20466;-57
2024/01/18 11:26:36;;;;;;;8.70;6.20;;;;;;;;;;5014780;28;20406;-58
2024/01/18 11:29:19;;;;;;;13.10;7.53;;;;;;;;;;5019823;28;20280;-56
2024/01/18 11:31:51;;;;;;;9.53;6.00;;;;;;;;;;5013223;28;20446;-55
2024/01/18 11:34:31;;;;;;;10.13;5.97;;;;;;;;;;5008551;28;20170;-56
2024/01/18 11:37:10;;;;;;;7.33;4.83;;;;;;;;;;5008866;28;20154;-57
2024/01/18 11:40:05;;;;;;;6.90;5.90;;;;;;;;;;5018973;28;20276;-59
2024/01/18 11:42:33;;;;;;;7.10;5.07;;;;;;;;;;4991852;28;20465;-56
2024/01/18 11:45:03;;;;;;;5.43;4.63;;;;;;;;;;5025001;28;20221;-57
2024/01/18 11:47:29;;;;;;;6.47;5.03;;;;;;;;;;5026538;28;20997;-57
2024/01/18 11:49:56;;;;;;;7.17;4.60;;;;;;;;;;5023177;28;20212;-57
2024/01/18 11:52:23;;;;;;;7.07;4.20;;;;;;;;;;5012944;28;20196;-57
2024/01/18 11:54:55;;;;;;;9.00;4.33;;;;;;;;;;5013756;28;20422;-59
2024/01/18 11:57:21;;;;;;;5.70;4.20;;;;;;;;;;5015974;28;20216;-57
2024/01/18 11:59:48;;;;;;;6.73;4.47;;;;;;;;;;5021582;28;20178;-57
2024/01/18 12:02:14;;;;;;;5.80;3.67;;;;;;;;;;5013933;28;20472;-57
2024/01/18 12:04:40;;;;;;;4.43;3.60;;;;;;;;;;5023790;28;20177;-54
2024/01/18 12:07:07;;;;;;;5.70;3.70;;;;;;;;;;5026078;28;20178;-54
2024/01/18 12:09:34;;;;;;;5.67;4.00;;;;;;;;;;5008463;28;20661;-54
2024/01/18 12:12:01;;;;;;;6.77;4.03;;;;;;;;;;5013268;28;20251;-55
2024/01/18 12:14:27;;;;;;;4.27;3.50;;;;;;;;;;5015607;28;20441;-54
2024/01/18 12:16:53;;;;;;;4.40;3.27;;;;;;;;;;5012307;28;20177;-54
2024/01/18 12:19:49;;;;;;;9.17;3.40;;;;;;;;;;5025588;28;21619;-54
2024/01/18 12:22:17;;;;;;;6.40;3.70;;;;;;;;;;5006351;28;20528;-53
2024/01/18 12:24:43;;;;;;;5.30;3.57;;;;;;;;;;5013027;28;20467;-53
2024/01/18 12:27:09;;;;;;;5.03;3.53;;;;;;;;;;5025715;28;20513;-54
2024/01/18 12:29:38;;;;;;;4.90;3.03;;;;;;;;;;5020404;28;20186;-54
2024/01/18 12:32:04;;;;;;;6.13;3.53;;;;;;;;;;5018901;28;20626;-54
2024/01/18 12:34:32;;;;;;;5.13;2.90;;;;;;;;;;5019693;28;20860;-53
2024/01/18 12:36:58;;;;;;;3.20;2.90;;;;;;;;;;5025997;28;20193;-53
2024/01/18 12:39:24;;;;;;;5.33;3.00;;;;;;;;;;5019628;28;20197;-55
2024/01/18 12:41:52;;;;;;;5.27;3.63;;;;;;;;;;5011535;28;20218;-55
2024/01/18 12:44:18;;;;;;;6.87;2.80;;;;;;;;;;5015976;28;20188;-53
2024/01/18 12:46:44;;;;;;;3.27;2.50;;;;;;;;;;5017418;28;20217;-54
2024/01/18 12:49:11;;;;;;;4.13;2.73;;;;;;;;;;5010059;28;20167;-54
2024/01/18 12:51:37;;;;;;;5.13;3.37;;;;;;;;;;5010599;28;20186;-54
2024/01/18 12:54:04;;;;;;;6.90;3.53;;;;;;;;;;5016576;28;20178;-54
2024/01/18 12:56:30;;;;;;;6.40;3.10;;;;;;;;;;5017933;28;20170;-54
2024/01/18 12:58:56;;;;;;;4.73;3.50;;;;;;;;;;5012491;28;20186;-54
2024/01/18 13:01:32;;;;;;;7.17;3.23;;;;;;;;;;5015178;28;20178;-53
2024/01/18 13:04:17;;;;;;;4.17;3.03;;;;;;;;;;5016357;28;20184;-54
2024/01/18 13:06:45;;;;;;;6.83;3.57;;;;;;;;;;5013088;28;20177;-54
2024/01/18 13:09:14;;;;;;;3.20;2.40;;;;;;;;;;5014994;28;20182;-54
2024/01/18 13:11:41;;;;;;;4.87;3.90;;;;;;;;;;5025033;28;20178;-54
2024/01/18 13:14:07;;;;;;;4.27;2.87;;;;;;;;;;5017209;28;20166;-54
2024/01/18 13:16:36;;;;;;;4.93;2.90;;;;;;;;;;5016512;28;20268;-55
2024/01/18 13:19:04;;;;;;;5.30;3.47;;;;;;;;;;5009718;28;20183;-54
2024/01/18 13:21:30;;;;;;;6.17;3.20;;;;;;;;;;5021226;28;20197;-54
2024/01/18 13:23:57;;;;;;;5.57;2.93;;;;;;;;;;5008222;28;20277;-54
2024/01/18 13:26:23;;;;;;;2.90;2.60;;;;;;;;;;5012248;28;20321;-55
2024/01/18 13:28:49;;;;;;;4.27;3.40;;;;;;;;;;5017612;28;20186;-54
2024/01/18 13:31:15;;;;;;;4.83;2.67;;;;;;;;;;5012588;28;20178;-54
2024/01/18 13:33:41;;;;;;;3.73;2.70;;;;;;;;;;5012979;28;20181;-54
2024/01/18 13:36:08;;;;;;;2.53;2.30;;;;;;;;;;5013689;28;20273;-54
2024/01/18 13:38:35;;;;;;;3.47;2.50;;;;;;;;;;5014836;28;20178;-54
2024/01/18 13:41:01;;;;;;;2.33;2.13;;;;;;;;;;5016361;28;20241;-54
2024/01/18 13:43:27;;;;;;;3.10;2.17;;;;;;;;;;5018297;28;20590;-54
2024/01/18 13:45:53;;;;;;;5.63;2.37;;;;;;;;;;5017068;28;20425;-53
2024/01/18 13:48:19;;;;;;;5.23;2.13;;;;;;;;;;5015297;28;20212;-54
2024/01/18 13:50:45;;;;;;;2.63;1.93;;;;;;;;;;5008365;28;20179;-54
2024/01/18 13:53:14;;;;;;;6.40;2.40;;;;;;;;;;5016220;28;20598;-53
2024/01/18 13:55:40;;;;;;;4.40;2.40;;;;;;;;;;5009696;28;20178;-54
2024/01/18 13:58:11;;;;;;;2.73;2.17;;;;;;;;;;5016508;28;20641;-54
2024/01/18 14:00:37;;;;;;;3.23;1.97;;;;;;;;;;5017879;28;20183;-54
2024/01/18 14:03:05;;;;;;;3.83;1.80;;;;;;;;;;5017687;28;20193;-54
2024/01/18 14:05:32;;;;;;;3.90;2.40;;;;;;;;;;5021083;28;20187;-54
2024/01/18 14:07:58;;;;;;;2.53;1.60;;;;;;;;;;5016262;28;20599;-54
2024/01/18 14:13:27;;;;;;;4.43;2.73;;;;;;;;;;5019140;28;20292;-53
2024/01/18 14:15:53;;;;;;;3.27;1.90;;;;;;;;;;5019658;28;20171;-54
2024/01/18 14:18:21;;;;;;;2.13;1.63;;;;;;;;;;5018397;28;20182;-54
2024/01/18 14:20:47;;;;;;;4.90;1.87;;;;;;;;;;5015847;28;20211;-54
2024/01/18 14:23:13;;;;;;;3.67;1.90;;;;;;;;;;5015026;28;20206;-54
2024/01/18 14:25:39;;;;;;;2.83;1.80;;;;;;;;;;5018823;28;20185;-53
2024/01/18 14:28:06;;;;;;;2.60;1.83;;;;;;;;;;5017398;28;20186;-53
2024/01/18 14:30:34;;;;;;;2.93;1.90;;;;;;;;;;5021208;28;20174;-53